createdAt,value
2023-01-29T00:00:02.404Z,-4.46
2023-01-29T00:00:33.872Z,-4.46
2023-01-29T00:01:05.708Z,-4.46
2023-01-29T00:01:37.761Z,-4.51
2023-01-29T00:02:09.752Z,-4.51
2023-01-29T00:02:41.732Z,-4.51
2023-01-29T00:03:13.605Z,-4.51
2023-01-29T00:03:45.841Z,-4.51
2023-01-29T00:04:17.682Z,-4.51
2023-01-29T00:04:49.686Z,-4.51
2023-01-29T00:05:53.520Z,-4.51
2023-01-29T00:06:25.684Z,-4.51
2023-01-29T00:06:57.602Z,-4.51
2023-01-29T00:07:29.449Z,-4.51
2023-01-29T00:08:01.464Z,-4.51
2023-01-29T00:08:33.468Z,-4.51
2023-01-29T00:09:05.515Z,-4.51
2023-01-29T00:09:37.346Z,-4.51
2023-01-29T00:10:09.375Z,-4.62
2023-01-29T00:10:21.008Z,-4.51
2023-01-29T00:10:41.456Z,-4.62
2023-01-29T00:11:13.618Z,-4.62
2023-01-29T00:11:45.588Z,-4.62
2023-01-29T00:12:17.414Z,-4.62
2023-01-29T00:12:49.324Z,-4.62
2023-01-29T00:13:22.068Z,-4.62
2023-01-29T00:13:53.282Z,-4.62
2023-01-29T00:14:26.060Z,-4.62
2023-01-29T00:14:57.188Z,-4.62
2023-01-29T00:15:30.416Z,-4.62
2023-01-29T00:16:01.353Z,-4.62
2023-01-29T00:16:34.050Z,-4.73
2023-01-29T00:17:05.205Z,-4.73
2023-01-29T00:17:37.833Z,-4.73
2023-01-29T00:18:09.019Z,-4.73
2023-01-29T00:18:42.001Z,-4.73
2023-01-29T00:19:13.063Z,-4.73
2023-01-29T00:19:45.752Z,-4.73
2023-01-29T00:20:17.388Z,-4.73
2023-01-29T00:20:49.875Z,-4.73
2023-01-29T00:21:21.081Z,-4.73
2023-01-29T00:21:53.877Z,-4.84
2023-01-29T00:22:24.739Z,-4.84
2023-01-29T00:22:57.697Z,-4.84
2023-01-29T00:23:28.861Z,-4.69
2023-01-29T00:24:01.959Z,-4.69
2023-01-29T00:24:33.011Z,-4.69
2023-01-29T00:25:05.731Z,-4.69
2023-01-29T00:25:36.716Z,-4.69
2023-01-29T00:26:09.692Z,-4.69
2023-01-29T00:26:40.739Z,-4.69
2023-01-29T00:27:13.582Z,-4.69
2023-01-29T00:27:44.703Z,-4.69
2023-01-29T00:28:17.777Z,-4.69
2023-01-29T00:28:48.548Z,-4.69
2023-01-29T00:29:21.499Z,-4.69
2023-01-29T00:29:52.553Z,-4.69
2023-01-29T00:30:25.693Z,-4.69
2023-01-29T00:30:56.666Z,-4.69
2023-01-29T00:31:29.707Z,-4.69
2023-01-29T00:32:00.848Z,-4.69
2023-01-29T00:32:33.247Z,-4.69
2023-01-29T00:33:04.418Z,-4.69
2023-01-29T00:33:37.298Z,-4.69
2023-01-29T00:34:08.450Z,-4.69
2023-01-29T00:34:41.229Z,-4.69
2023-01-29T00:35:12.321Z,-4.69
2023-01-29T00:35:45.261Z,-4.69
2023-01-29T00:36:16.292Z,-4.69
2023-01-29T00:36:49.093Z,-4.69
2023-01-29T00:37:20.514Z,-4.69
2023-01-29T00:37:53.087Z,-4.69
2023-01-29T00:38:24.232Z,-4.69
2023-01-29T00:38:56.924Z,-4.80
2023-01-29T00:39:42.507Z,-4.80
2023-01-29T00:40:01.407Z,-4.80
2023-01-29T00:40:32.133Z,-4.80
2023-01-29T00:41:04.874Z,-4.80
2023-01-29T00:41:36.074Z,-4.80
2023-01-29T00:42:09.355Z,-4.80
2023-01-29T00:42:40.146Z,-4.80
2023-01-29T00:43:12.902Z,-4.80
2023-01-29T00:43:43.889Z,-4.80
2023-01-29T00:44:16.864Z,-4.80
2023-01-29T00:44:48.007Z,-4.80
2023-01-29T00:45:20.946Z,-4.80
2023-01-29T00:45:52.040Z,-4.80
2023-01-29T00:46:24.896Z,-4.80
2023-01-29T00:46:55.857Z,-4.80
2023-01-29T00:47:28.656Z,-4.80
2023-01-29T00:47:59.767Z,-4.80
2023-01-29T00:48:32.872Z,-4.80
2023-01-29T00:49:03.956Z,-4.85
2023-01-29T00:49:36.532Z,-4.85
2023-01-29T00:50:07.649Z,-4.85
2023-01-29T00:50:40.696Z,-4.85
2023-01-29T00:51:11.773Z,-4.85
2023-01-29T00:51:44.486Z,-4.85
2023-01-29T00:52:15.634Z,-4.85
2023-01-29T00:52:48.528Z,-4.85
2023-01-29T00:53:19.679Z,-4.85
2023-01-29T00:53:52.448Z,-4.85
2023-01-29T00:54:23.459Z,-4.85
2023-01-29T00:54:56.455Z,-4.71
2023-01-29T00:55:27.532Z,-4.82
2023-01-29T00:56:00.276Z,-4.82
2023-01-29T00:56:31.509Z,-4.82
2023-01-29T00:57:04.463Z,-4.82
2023-01-29T00:57:35.463Z,-4.82
2023-01-29T00:58:08.141Z,-4.82
2023-01-29T00:58:39.307Z,-4.82
2023-01-29T00:59:12.264Z,-4.82
2023-01-29T00:59:43.376Z,-4.82
2023-01-29T01:00:17.176Z,-4.82
2023-01-29T01:00:47.350Z,-4.82
2023-01-29T01:01:20.223Z,-4.82
2023-01-29T01:01:51.363Z,-4.82
2023-01-29T01:02:24.162Z,-4.82
2023-01-29T01:02:55.143Z,-4.82
2023-01-29T01:03:28.080Z,-4.82
2023-01-29T01:03:59.199Z,-4.82
2023-01-29T01:04:33.523Z,-4.82
2023-01-29T01:05:03.013Z,-4.82
2023-01-29T01:05:36.154Z,-4.82
2023-01-29T01:06:06.981Z,-4.82
2023-01-29T01:06:40.045Z,-4.82
2023-01-29T01:07:43.901Z,-4.82
2023-01-29T01:08:14.815Z,-4.82
2023-01-29T01:08:47.775Z,-4.82
2023-01-29T01:09:18.961Z,-4.82
2023-01-29T01:09:51.831Z,-4.82
2023-01-29T01:10:22.781Z,-4.94
2023-01-29T01:10:55.665Z,-4.94
2023-01-29T01:11:26.806Z,-4.94
2023-01-29T01:11:59.779Z,-4.94
2023-01-29T01:12:30.811Z,-4.94
2023-01-29T01:13:03.661Z,-4.94
2023-01-29T01:13:34.777Z,-4.94
2023-01-29T01:14:07.933Z,-4.94
2023-01-29T01:14:38.617Z,-4.94
2023-01-29T01:15:11.790Z,-4.94
2023-01-29T01:15:42.723Z,-4.94
2023-01-29T01:16:15.675Z,-4.94
2023-01-29T01:16:46.627Z,-4.94
2023-01-29T01:17:19.472Z,-4.94
2023-01-29T01:17:50.668Z,-4.94
2023-01-29T01:18:23.491Z,-4.94
2023-01-29T01:18:54.407Z,-4.94
2023-01-29T01:19:27.352Z,-4.94
2023-01-29T01:19:58.543Z,-4.94
2023-01-29T01:20:31.534Z,-4.94
2023-01-29T01:21:02.348Z,-4.94
2023-01-29T01:21:35.382Z,-4.94
2023-01-29T01:22:06.379Z,-4.94
2023-01-29T01:22:39.315Z,-4.94
2023-01-29T01:23:10.275Z,-4.94
2023-01-29T01:23:43.282Z,-4.82
2023-01-29T01:24:14.407Z,-4.82
2023-01-29T01:24:47.417Z,-4.82
2023-01-29T01:25:18.267Z,-4.82
2023-01-29T01:25:51.210Z,-4.82
2023-01-29T01:26:22.209Z,-4.82
2023-01-29T01:26:55.169Z,-4.71
2023-01-29T01:27:26.077Z,-4.71
2023-01-29T01:28:30.107Z,-4.66
2023-01-29T01:29:03.096Z,-4.66
2023-01-29T01:29:34.047Z,-4.66
2023-01-29T01:30:07.249Z,-4.66
2023-01-29T01:30:38.150Z,-4.66
2023-01-29T01:31:11.062Z,-4.66
2023-01-29T01:31:42.062Z,-4.80
2023-01-29T01:32:14.845Z,-4.69
2023-01-29T01:32:46.016Z,-4.69
2023-01-29T01:33:18.985Z,-4.69
2023-01-29T01:33:49.795Z,-4.69
2023-01-29T01:34:22.721Z,-4.69
2023-01-29T01:34:53.878Z,-4.69
2023-01-29T01:35:26.834Z,-4.69
2023-01-29T01:35:58.218Z,-4.69
2023-01-29T01:36:30.823Z,-4.58
2023-01-29T01:37:01.769Z,-4.58
2023-01-29T01:37:34.543Z,-4.58
2023-01-29T01:38:05.625Z,-4.58
2023-01-29T01:38:38.524Z,-4.58
2023-01-29T01:39:09.672Z,-4.58
2023-01-29T01:39:42.577Z,-4.58
2023-01-29T01:40:13.937Z,-4.58
2023-01-29T01:40:46.558Z,-4.58
2023-01-29T01:41:17.589Z,-4.58
2023-01-29T01:41:50.393Z,-4.58
2023-01-29T01:42:21.484Z,-4.58
2023-01-29T01:42:54.423Z,-4.58
2023-01-29T01:43:25.688Z,-4.58
2023-01-29T01:43:58.258Z,-4.58
2023-01-29T01:44:29.371Z,-4.58
2023-01-29T01:45:02.605Z,-4.58
2023-01-29T01:45:33.675Z,-4.58
2023-01-29T01:46:06.222Z,-4.58
2023-01-29T01:46:37.279Z,-4.58
2023-01-29T01:47:10.209Z,-4.58
2023-01-29T01:47:41.422Z,-4.47
2023-01-29T01:48:14.119Z,-4.47
2023-01-29T01:48:45.419Z,-4.47
2023-01-29T01:49:18.297Z,-4.47
2023-01-29T01:49:49.412Z,-4.47
2023-01-29T01:50:22.005Z,-4.47
2023-01-29T01:50:53.110Z,-4.47
2023-01-29T01:51:26.028Z,-4.47
2023-01-29T01:51:57.175Z,-4.47
2023-01-29T01:52:29.862Z,-4.47
2023-01-29T01:53:01.063Z,-4.47
2023-01-29T01:53:34.499Z,-4.47
2023-01-29T01:54:05.060Z,-4.47
2023-01-29T01:54:37.867Z,-4.47
2023-01-29T01:55:08.990Z,-4.47
2023-01-29T01:55:41.836Z,-4.47
2023-01-29T01:56:12.924Z,-4.47
2023-01-29T01:56:45.867Z,-4.47
2023-01-29T01:57:16.879Z,-4.47
2023-01-29T01:57:49.757Z,-4.47
2023-01-29T01:58:21.043Z,-4.47
2023-01-29T01:58:53.595Z,-4.47
2023-01-29T01:59:24.801Z,-4.47
2023-01-29T01:59:57.694Z,-4.47
2023-01-29T02:00:29.038Z,-4.47
2023-01-29T02:01:01.594Z,-4.36
2023-01-29T02:01:32.802Z,-4.36
2023-01-29T02:02:05.687Z,-4.36
2023-01-29T02:02:36.738Z,-4.36
2023-01-29T02:03:09.659Z,-4.36
2023-01-29T02:03:40.726Z,-4.36
2023-01-29T02:04:13.504Z,-4.36
2023-01-29T02:04:44.706Z,-4.36
2023-01-29T02:05:17.417Z,-4.36
2023-01-29T02:05:48.510Z,-4.51
2023-01-29T02:06:21.560Z,-4.51
2023-01-29T02:06:52.367Z,-4.36
2023-01-29T02:07:25.445Z,-4.36
2023-01-29T02:07:56.464Z,-4.36
2023-01-29T02:08:29.319Z,-4.36
2023-01-29T02:09:00.606Z,-4.36
2023-01-29T02:09:34.145Z,-4.46
2023-01-29T02:10:04.358Z,-4.46
2023-01-29T02:10:37.248Z,-4.46
2023-01-29T02:11:08.255Z,-4.31
2023-01-29T02:11:41.220Z,-4.31
2023-01-29T02:12:12.254Z,-4.36
2023-01-29T02:12:45.262Z,-4.36
2023-01-29T02:13:16.147Z,-4.36
2023-01-29T02:13:49.128Z,-4.36
2023-01-29T02:14:20.147Z,-4.36
2023-01-29T02:14:53.082Z,-4.36
2023-01-29T02:15:24.145Z,-4.36
2023-01-29T02:15:56.948Z,-4.36
2023-01-29T02:16:28.062Z,-4.51
2023-01-29T02:17:01.103Z,-4.51
2023-01-29T02:17:32.060Z,-4.51
2023-01-29T02:18:05.027Z,-4.51
2023-01-29T02:18:36.002Z,-4.51
2023-01-29T02:19:08.928Z,-4.51
2023-01-29T02:19:39.989Z,-4.51
2023-01-29T02:20:12.727Z,-4.51
2023-01-29T02:20:43.984Z,-4.51
2023-01-29T02:21:16.809Z,-4.51
2023-01-29T02:21:47.748Z,-4.46
2023-01-29T02:22:20.759Z,-4.51
2023-01-29T02:22:51.826Z,-4.51
2023-01-29T02:23:24.737Z,-4.51
2023-01-29T02:23:55.762Z,-4.51
2023-01-29T02:24:28.701Z,-4.51
2023-01-29T02:24:59.762Z,-4.51
2023-01-29T02:25:32.704Z,-4.51
2023-01-29T02:26:03.619Z,-4.51
2023-01-29T02:26:36.523Z,-4.51
2023-01-29T02:27:07.578Z,-4.51
2023-01-29T02:27:40.673Z,-4.51
2023-01-29T02:28:11.523Z,-4.51
2023-01-29T02:28:44.500Z,-4.51
2023-01-29T02:29:15.621Z,-4.62
2023-01-29T02:29:48.536Z,-4.62
2023-01-29T02:30:19.515Z,-4.62
2023-01-29T02:30:52.399Z,-4.47
2023-01-29T02:31:23.562Z,-4.58
2023-01-29T02:31:56.446Z,-4.58
2023-01-29T02:32:27.326Z,-4.58
2023-01-29T02:33:00.280Z,-4.58
2023-01-29T02:33:31.509Z,-4.58
2023-01-29T02:34:04.465Z,-4.58
2023-01-29T02:34:35.227Z,-4.58
2023-01-29T02:35:08.167Z,-4.58
2023-01-29T02:35:39.224Z,-4.58
2023-01-29T02:36:12.207Z,-4.58
2023-01-29T02:36:43.175Z,-4.69
2023-01-29T02:37:16.083Z,-4.69
2023-01-29T02:37:47.344Z,-4.69
2023-01-29T02:38:20.405Z,-4.69
2023-01-29T02:38:51.163Z,-4.69
2023-01-29T02:39:24.031Z,-4.69
2023-01-29T02:39:55.091Z,-4.80
2023-01-29T02:40:27.846Z,-4.80
2023-01-29T02:40:58.959Z,-4.80
2023-01-29T02:41:31.943Z,-4.80
2023-01-29T02:42:03.131Z,-4.80
2023-01-29T02:42:36.675Z,-4.80
2023-01-29T02:43:06.923Z,-4.80
2023-01-29T02:43:40.823Z,-4.80
2023-01-29T02:44:11.048Z,-4.80
2023-01-29T02:44:43.722Z,-4.80
2023-01-29T02:45:15.041Z,-4.80
2023-01-29T02:45:47.849Z,-4.80
2023-01-29T02:46:19.018Z,-4.80
2023-01-29T02:46:51.717Z,-4.80
2023-01-29T02:47:22.685Z,-4.80
2023-01-29T02:47:55.670Z,-4.80
2023-01-29T02:48:26.837Z,-4.85
2023-01-29T02:48:59.713Z,-4.85
2023-01-29T02:49:30.725Z,-4.85
2023-01-29T02:50:03.649Z,-4.85
2023-01-29T02:50:34.751Z,-4.85
2023-01-29T02:51:07.447Z,-4.71
2023-01-29T02:51:38.585Z,-4.82
2023-01-29T02:52:11.561Z,-4.82
2023-01-29T02:52:42.675Z,-4.82
2023-01-29T02:53:15.396Z,-4.82
2023-01-29T02:53:46.591Z,-4.82
2023-01-29T02:54:19.409Z,-4.82
2023-01-29T02:54:50.700Z,-4.82
2023-01-29T02:55:23.303Z,-4.82
2023-01-29T02:55:54.526Z,-4.82
2023-01-29T02:56:27.288Z,-4.82
2023-01-29T02:56:58.256Z,-4.82
2023-01-29T02:57:31.265Z,-4.82
2023-01-29T02:58:02.303Z,-4.82
2023-01-29T02:58:35.459Z,-4.82
2023-01-29T02:59:06.369Z,-4.82
2023-01-29T02:59:39.031Z,-4.82
2023-01-29T03:00:10.857Z,-4.82
2023-01-29T03:00:43.251Z,-4.94
2023-01-29T03:01:14.227Z,-4.94
2023-01-29T03:01:47.208Z,-4.94
2023-01-29T03:02:18.189Z,-4.94
2023-01-29T03:02:51.211Z,-4.94
2023-01-29T03:03:21.938Z,-4.94
2023-01-29T03:03:55.146Z,-4.94
2023-01-29T03:04:26.094Z,-4.94
2023-01-29T03:04:59.178Z,-5.05
2023-01-29T03:05:29.943Z,-5.05
2023-01-29T03:06:02.804Z,-5.05
2023-01-29T03:06:33.999Z,-5.05
2023-01-29T03:07:07.006Z,-5.05
2023-01-29T03:07:37.808Z,-5.05
2023-01-29T03:08:11.349Z,-5.05
2023-01-29T03:08:41.919Z,-5.05
2023-01-29T03:09:14.913Z,-5.05
2023-01-29T03:09:46.100Z,-5.05
2023-01-29T03:10:18.816Z,-5.05
2023-01-29T03:10:49.805Z,-5.05
2023-01-29T03:11:22.839Z,-5.05
2023-01-29T03:11:53.755Z,-5.05
2023-01-29T03:12:26.606Z,-5.05
2023-01-29T03:12:57.742Z,-5.05
2023-01-29T03:13:30.737Z,-5.05
2023-01-29T03:14:01.791Z,-5.05
2023-01-29T03:14:34.794Z,-5.05
2023-01-29T03:15:06.151Z,-5.05
2023-01-29T03:15:38.551Z,-5.05
2023-01-29T03:16:09.549Z,-5.05
2023-01-29T03:16:42.698Z,-5.05
2023-01-29T03:17:13.548Z,-4.91
2023-01-29T03:17:46.506Z,-4.91
2023-01-29T03:18:17.410Z,-5.05
2023-01-29T03:18:50.495Z,-5.05
2023-01-29T03:19:21.524Z,-5.05
2023-01-29T03:19:54.507Z,-5.05
2023-01-29T03:20:25.427Z,-5.05
2023-01-29T03:20:58.184Z,-5.05
2023-01-29T03:21:29.372Z,-5.05
2023-01-29T03:22:02.101Z,-5.05
2023-01-29T03:22:33.209Z,-5.05
2023-01-29T03:23:06.221Z,-5.05
2023-01-29T03:23:37.321Z,-5.05
2023-01-29T03:24:10.160Z,-5.05
2023-01-29T03:24:41.289Z,-5.05
2023-01-29T03:25:14.270Z,-5.05
2023-01-29T03:25:45.175Z,-5.05
2023-01-29T03:26:17.960Z,-5.05
2023-01-29T03:26:49.043Z,-5.05
2023-01-29T03:27:21.999Z,-5.05
2023-01-29T03:27:53.062Z,-5.05
2023-01-29T03:28:25.880Z,-5.05
2023-01-29T03:28:57.025Z,-5.05
2023-01-29T03:29:29.883Z,-5.05
2023-01-29T03:30:01.883Z,-5.05
2023-01-29T03:30:49.339Z,-5.05
2023-01-29T03:31:33.097Z,-5.05
2023-01-29T03:32:04.946Z,-5.05
2023-01-29T03:32:36.965Z,-5.05
2023-01-29T03:33:08.818Z,-5.05
2023-01-29T03:33:40.946Z,-5.05
2023-01-29T03:34:12.969Z,-5.05
2023-01-29T03:34:44.855Z,-5.05
2023-01-29T03:35:16.668Z,-5.05
2023-01-29T03:35:48.710Z,-5.05
2023-01-29T03:36:20.797Z,-5.05
2023-01-29T03:36:52.517Z,-5.05
2023-01-29T03:37:24.610Z,-5.05
2023-01-29T03:37:56.589Z,-5.16
2023-01-29T03:38:28.612Z,-5.16
2023-01-29T03:39:00.693Z,-5.16
2023-01-29T03:39:32.645Z,-5.16
2023-01-29T03:40:04.751Z,-5.16
2023-01-29T03:40:36.598Z,-5.16
2023-01-29T03:41:08.403Z,-5.16
2023-01-29T03:41:40.595Z,-5.02
2023-01-29T03:42:12.485Z,-5.16
2023-01-29T03:42:44.486Z,-5.16
2023-01-29T03:43:16.269Z,-5.16
2023-01-29T03:43:48.391Z,-5.16
2023-01-29T03:44:20.426Z,-5.16
2023-01-29T03:44:52.377Z,-5.02
2023-01-29T03:45:24.445Z,-5.02
2023-01-29T03:45:56.374Z,-5.02
2023-01-29T03:46:28.284Z,-5.02
2023-01-29T03:47:00.417Z,-5.02
2023-01-29T03:47:32.112Z,-5.02
2023-01-29T03:48:04.266Z,-5.02
2023-01-29T03:48:36.284Z,-5.02
2023-01-29T03:49:08.226Z,-5.02
2023-01-29T03:49:40.117Z,-5.02
2023-01-29T03:50:12.094Z,-5.02
2023-01-29T03:50:44.151Z,-5.02
2023-01-29T03:51:16.183Z,-5.02
2023-01-29T03:51:47.975Z,-5.02
2023-01-29T03:52:20.152Z,-5.07
2023-01-29T03:52:52.067Z,-5.07
2023-01-29T03:53:24.122Z,-5.07
2023-01-29T03:53:55.894Z,-5.07
2023-01-29T03:54:27.953Z,-5.07
2023-01-29T03:54:59.959Z,-5.07
2023-01-29T03:55:32.149Z,-5.07
2023-01-29T03:56:03.810Z,-5.07
2023-01-29T03:56:35.841Z,-5.07
2023-01-29T03:57:07.864Z,-5.07
2023-01-29T03:57:39.943Z,-5.07
2023-01-29T03:58:11.764Z,-5.07
2023-01-29T03:58:43.765Z,-5.07
2023-01-29T03:59:15.828Z,-5.07
2023-01-29T03:59:47.822Z,-5.07
2023-01-29T04:00:19.832Z,-5.07
2023-01-29T04:00:51.781Z,-5.07
2023-01-29T04:01:23.757Z,-5.07
2023-01-29T04:01:55.527Z,-5.07
2023-01-29T04:02:27.541Z,-5.07
2023-01-29T04:02:59.549Z,-5.18
2023-01-29T04:03:31.685Z,-5.18
2023-01-29T04:04:04.194Z,-5.18
2023-01-29T04:04:35.764Z,-5.18
2023-01-29T04:05:07.455Z,-5.18
2023-01-29T04:05:39.492Z,-5.18
2023-01-29T04:06:11.471Z,-5.18
2023-01-29T04:06:43.609Z,-5.18
2023-01-29T04:07:15.443Z,-5.18
2023-01-29T04:07:47.467Z,-5.30
2023-01-29T04:08:19.264Z,-5.30
2023-01-29T04:08:51.483Z,-5.30
2023-01-29T04:09:23.357Z,-5.30
2023-01-29T04:09:55.443Z,-5.30
2023-01-29T04:10:27.243Z,-5.30
2023-01-29T04:10:59.315Z,-5.30
2023-01-29T04:11:31.858Z,-5.30
2023-01-29T04:12:03.245Z,-5.30
2023-01-29T04:12:35.077Z,-5.30
2023-01-29T04:13:07.120Z,-5.30
2023-01-29T04:13:39.169Z,-5.30
2023-01-29T04:14:11.287Z,-5.30
2023-01-29T04:14:43.004Z,-5.30
2023-01-29T04:15:15.228Z,-5.30
2023-01-29T04:15:47.086Z,-5.30
2023-01-29T04:16:19.150Z,-5.41
2023-01-29T04:16:51.163Z,-5.41
2023-01-29T04:17:22.958Z,-5.41
2023-01-29T04:17:55.307Z,-5.41
2023-01-29T04:18:27.088Z,-5.41
2023-01-29T04:18:58.854Z,-5.41
2023-01-29T04:19:30.966Z,-5.41
2023-01-29T04:20:02.956Z,-5.30
2023-01-29T04:20:35.085Z,-5.30
2023-01-29T04:21:06.748Z,-5.30
2023-01-29T04:21:38.829Z,-5.15
2023-01-29T04:22:10.933Z,-5.15
2023-01-29T04:22:42.913Z,-5.15
2023-01-29T04:23:14.673Z,-5.15
2023-01-29T04:23:46.651Z,-5.15
2023-01-29T04:24:18.835Z,-5.03
2023-01-29T04:24:50.821Z,-5.03
2023-01-29T04:25:22.593Z,-5.03
2023-01-29T04:25:54.632Z,-5.03
2023-01-29T04:26:26.625Z,-5.03
2023-01-29T04:26:58.447Z,-5.03
2023-01-29T04:27:30.644Z,-5.03
2023-01-29T04:28:02.564Z,-5.03
2023-01-29T04:28:34.577Z,-5.03
2023-01-29T04:29:06.499Z,-5.03
2023-01-29T04:29:38.438Z,-5.03
2023-01-29T04:30:10.868Z,-5.03
2023-01-29T04:30:42.556Z,-4.92
2023-01-29T04:31:14.389Z,-4.92
2023-01-29T04:31:46.440Z,-4.92
2023-01-29T04:32:18.367Z,-4.92
2023-01-29T04:32:50.564Z,-4.92
2023-01-29T04:33:22.225Z,-4.92
2023-01-29T04:33:54.262Z,-4.92
2023-01-29T04:34:26.304Z,-4.88
2023-01-29T04:34:58.427Z,-4.88
2023-01-29T04:35:30.099Z,-4.88
2023-01-29T04:36:02.159Z,-4.88
2023-01-29T04:36:34.165Z,-4.88
2023-01-29T04:37:06.211Z,-4.88
2023-01-29T04:37:38.066Z,-4.88
2023-01-29T04:38:10.049Z,-4.88
2023-01-29T04:38:42.095Z,-4.77
2023-01-29T04:39:14.119Z,-4.77
2023-01-29T04:39:46.129Z,-4.77
2023-01-29T04:40:18.331Z,-4.77
2023-01-29T04:40:50.134Z,-4.77
2023-01-29T04:41:22.063Z,-4.77
2023-01-29T04:41:53.888Z,-4.77
2023-01-29T04:42:25.915Z,-4.77
2023-01-29T04:42:57.949Z,-4.66
2023-01-29T04:43:29.951Z,-4.66
2023-01-29T04:44:01.788Z,-4.66
2023-01-29T04:44:34.476Z,-4.66
2023-01-29T04:45:06.317Z,-4.66
2023-01-29T04:45:37.923Z,-4.54
2023-01-29T04:46:09.747Z,-4.54
2023-01-29T04:46:41.728Z,-4.54
2023-01-29T04:47:13.972Z,-4.54
2023-01-29T04:47:45.866Z,-4.54
2023-01-29T04:48:17.662Z,-4.54
2023-01-29T04:48:49.658Z,-4.54
2023-01-29T04:49:21.663Z,-4.54
2023-01-29T04:49:53.733Z,-4.54
2023-01-29T04:50:25.501Z,-4.54
2023-01-29T04:50:57.515Z,-4.54
2023-01-29T04:51:29.545Z,-4.43
2023-01-29T04:52:01.641Z,-4.43
2023-01-29T04:52:34.022Z,-4.43
2023-01-29T04:53:05.639Z,-4.58
2023-01-29T04:53:37.471Z,-4.58
2023-01-29T04:54:09.528Z,-4.53
2023-01-29T04:54:41.399Z,-4.53
2023-01-29T04:55:13.342Z,-4.53
2023-01-29T04:55:45.453Z,-4.53
2023-01-29T04:56:17.234Z,-4.53
2023-01-29T04:56:49.240Z,-4.53
2023-01-29T04:57:21.492Z,-4.53
2023-01-29T04:57:53.360Z,-4.53
2023-01-29T04:58:25.419Z,-4.53
2023-01-29T04:58:57.327Z,-4.42
2023-01-29T04:59:29.231Z,-4.42
2023-01-29T05:00:02.057Z,-4.42
2023-01-29T05:00:33.067Z,-4.42
2023-01-29T05:01:05.185Z,-4.42
2023-01-29T05:01:37.275Z,-4.42
2023-01-29T05:02:09.168Z,-4.42
2023-01-29T05:02:41.280Z,-4.42
2023-01-29T05:03:12.983Z,-4.42
2023-01-29T05:03:45.042Z,-4.31
2023-01-29T05:04:17.264Z,-4.45
2023-01-29T05:04:48.942Z,-4.45
2023-01-29T05:05:21.195Z,-4.45
2023-01-29T05:05:53.064Z,-4.45
2023-01-29T05:06:25.019Z,-4.45
2023-01-29T05:06:56.802Z,-4.45
2023-01-29T05:07:28.867Z,-4.45
2023-01-29T05:08:00.934Z,-4.45
2023-01-29T05:08:32.868Z,-4.33
2023-01-29T05:09:04.719Z,-4.33
2023-01-29T05:09:36.749Z,-4.33
2023-01-29T05:10:08.826Z,-4.33
2023-01-29T05:10:40.912Z,-4.22
2023-01-29T05:11:12.773Z,-4.22
2023-01-29T05:11:44.721Z,-4.22
2023-01-29T05:12:16.672Z,-4.22
2023-01-29T05:12:48.604Z,-4.36
2023-01-29T05:13:20.726Z,-4.36
2023-01-29T05:13:52.539Z,-4.31
2023-01-29T05:14:24.655Z,-4.31
2023-01-29T05:14:56.701Z,-4.31
2023-01-29T05:15:28.719Z,-4.31
2023-01-29T05:16:00.700Z,-4.20
2023-01-29T05:16:32.500Z,-4.20
2023-01-29T05:17:04.426Z,-4.20
2023-01-29T05:17:36.459Z,-4.20
2023-01-29T05:18:08.644Z,-4.20
2023-01-29T05:18:40.536Z,-4.20
2023-01-29T05:19:12.295Z,-4.20
2023-01-29T05:19:44.323Z,-4.20
2023-01-29T05:20:16.862Z,-4.20
2023-01-29T05:20:48.316Z,-4.20
2023-01-29T05:21:20.191Z,-4.20
2023-01-29T05:21:52.268Z,-4.20
2023-01-29T05:22:24.519Z,-4.20
2023-01-29T05:22:56.321Z,-4.20
2023-01-29T05:23:28.281Z,-4.20
2023-01-29T05:24:00.235Z,-4.20
2023-01-29T05:24:32.226Z,-4.20
2023-01-29T05:25:04.217Z,-4.09
2023-01-29T05:25:36.087Z,-4.09
2023-01-29T05:26:08.060Z,-4.09
2023-01-29T05:26:40.127Z,-4.09
2023-01-29T05:27:12.095Z,-4.09
2023-01-29T05:27:43.969Z,-4.09
2023-01-29T05:28:15.977Z,-4.24
2023-01-29T05:28:48.023Z,-4.24
2023-01-29T05:29:20.135Z,-4.09
2023-01-29T05:29:51.889Z,-4.09
2023-01-29T05:30:24.050Z,-4.09
2023-01-29T05:30:56.084Z,-4.09
2023-01-29T05:31:28.014Z,-3.97
2023-01-29T05:31:59.804Z,-4.12
2023-01-29T05:32:31.806Z,-4.12
2023-01-29T05:33:03.772Z,-4.12
2023-01-29T05:33:35.885Z,-4.12
2023-01-29T05:34:07.705Z,-4.12
2023-01-29T05:34:39.693Z,-4.12
2023-01-29T05:35:11.792Z,-4.01
2023-01-29T05:35:43.812Z,-4.01
2023-01-29T05:36:15.614Z,-4.01
2023-01-29T05:36:47.653Z,-4.01
2023-01-29T05:37:19.659Z,-4.01
2023-01-29T05:37:51.597Z,-4.01
2023-01-29T05:38:23.509Z,-4.01
2023-01-29T05:38:55.565Z,-4.01
2023-01-29T05:39:27.593Z,-4.01
2023-01-29T05:39:59.436Z,-4.01
2023-01-29T05:40:31.801Z,-4.01
2023-01-29T05:41:03.464Z,-4.01
2023-01-29T05:41:35.736Z,-4.01
2023-01-29T05:42:07.303Z,-4.01
2023-01-29T05:42:39.349Z,-3.96
2023-01-29T05:43:11.517Z,-3.96
2023-01-29T05:43:43.417Z,-3.96
2023-01-29T05:44:15.326Z,-3.96
2023-01-29T05:44:47.405Z,-3.96
2023-01-29T05:45:19.458Z,-3.96
2023-01-29T05:45:51.477Z,-3.96
2023-01-29T05:46:23.257Z,-3.96
2023-01-29T05:46:55.357Z,-3.96
2023-01-29T05:47:27.184Z,-3.96
2023-01-29T05:47:59.290Z,-3.96
2023-01-29T05:48:31.154Z,-3.96
2023-01-29T05:49:03.114Z,-3.96
2023-01-29T05:49:36.355Z,-3.96
2023-01-29T05:50:07.166Z,-3.96
2023-01-29T05:50:38.973Z,-3.96
2023-01-29T05:51:11.240Z,-3.96
2023-01-29T05:51:43.066Z,-3.96
2023-01-29T05:52:15.108Z,-3.85
2023-01-29T05:52:47.039Z,-3.85
2023-01-29T05:53:18.883Z,-3.85
2023-01-29T05:53:51.219Z,-3.85
2023-01-29T05:54:23.010Z,-3.85
2023-01-29T05:54:54.882Z,-3.85
2023-01-29T05:55:26.852Z,-3.85
2023-01-29T05:55:58.887Z,-3.85
2023-01-29T05:56:30.853Z,-3.85
2023-01-29T05:57:02.741Z,-3.85
2023-01-29T05:57:34.771Z,-3.85
2023-01-29T05:58:06.782Z,-3.85
2023-01-29T05:58:38.809Z,-3.85
2023-01-29T05:59:10.802Z,-3.85
2023-01-29T05:59:42.693Z,-3.85
2023-01-29T06:00:15.764Z,-3.75
2023-01-29T06:00:46.594Z,-3.75
2023-01-29T06:01:18.602Z,-3.75
2023-01-29T06:01:50.661Z,-3.75
2023-01-29T06:02:22.628Z,-3.75
2023-01-29T06:02:54.538Z,-3.75
2023-01-29T06:03:26.525Z,-3.75
2023-01-29T06:03:58.526Z,-3.75
2023-01-29T06:04:30.711Z,-3.75
2023-01-29T06:05:02.442Z,-3.75
2023-01-29T06:05:34.469Z,-3.75
2023-01-29T06:06:06.576Z,-3.75
2023-01-29T06:06:38.412Z,-3.75
2023-01-29T06:07:10.300Z,-3.75
2023-01-29T06:07:43.762Z,-3.75
2023-01-29T06:08:14.362Z,-3.75
2023-01-29T06:08:46.438Z,-3.75
2023-01-29T06:09:18.177Z,-3.75
2023-01-29T06:09:50.252Z,-3.75
2023-01-29T06:10:22.227Z,-3.75
2023-01-29T06:10:54.305Z,-3.75
2023-01-29T06:11:26.151Z,-3.75
2023-01-29T06:11:58.276Z,-3.75
2023-01-29T06:12:30.136Z,-3.75
2023-01-29T06:13:02.212Z,-3.75
2023-01-29T06:13:34.092Z,-3.78
2023-01-29T06:14:06.188Z,-3.78
2023-01-29T06:14:38.113Z,-3.78
2023-01-29T06:15:10.530Z,-3.78
2023-01-29T06:15:41.921Z,-3.78
2023-01-29T06:16:14.077Z,-3.78
2023-01-29T06:16:46.076Z,-3.78
2023-01-29T06:17:18.044Z,-3.78
2023-01-29T06:17:49.988Z,-3.78
2023-01-29T06:18:21.943Z,-3.78
2023-01-29T06:18:53.952Z,-3.78
2023-01-29T06:19:25.984Z,-3.78
2023-01-29T06:19:57.805Z,-3.78
2023-01-29T06:20:29.822Z,-3.78
2023-01-29T06:21:01.854Z,-3.78
2023-01-29T06:21:34.406Z,-3.78
2023-01-29T06:22:05.767Z,-3.78
2023-01-29T06:22:37.676Z,-3.78
2023-01-29T06:23:09.836Z,-3.78
2023-01-29T06:23:41.627Z,-3.78
2023-01-29T06:24:13.753Z,-3.78
2023-01-29T06:24:45.643Z,-3.78
2023-01-29T06:25:17.691Z,-3.78
2023-01-29T06:25:49.504Z,-3.63
2023-01-29T06:26:21.664Z,-3.63
2023-01-29T06:26:53.489Z,-3.63
2023-01-29T06:27:25.529Z,-3.78
2023-01-29T06:27:59.457Z,-3.78
2023-01-29T06:28:29.394Z,-3.78
2023-01-29T06:29:01.463Z,-3.78
2023-01-29T06:29:33.541Z,-3.78
2023-01-29T06:30:06.017Z,-3.78
2023-01-29T06:30:37.408Z,-3.78
2023-01-29T06:31:24.322Z,-3.78
2023-01-29T06:31:41.599Z,-3.78
2023-01-29T06:32:13.269Z,-3.78
2023-01-29T06:32:45.253Z,-3.78
2023-01-29T06:33:17.247Z,-3.67
2023-01-29T06:33:49.327Z,-3.67
2023-01-29T06:34:21.253Z,-3.67
2023-01-29T06:34:53.116Z,-3.67
2023-01-29T06:35:25.204Z,-3.67
2023-01-29T06:35:57.393Z,-3.67
2023-01-29T06:36:29.232Z,-3.67
2023-01-29T06:37:01.275Z,-3.67
2023-01-29T06:37:33.137Z,-3.67
2023-01-29T06:38:05.211Z,-3.67
2023-01-29T06:38:36.983Z,-3.67
2023-01-29T06:39:08.999Z,-3.67
2023-01-29T06:39:41.219Z,-3.67
2023-01-29T06:40:13.079Z,-3.67
2023-01-29T06:40:44.864Z,-3.67
2023-01-29T06:41:16.930Z,-3.67
2023-01-29T06:41:48.978Z,-3.67
2023-01-29T06:42:21.281Z,-3.67
2023-01-29T06:42:52.828Z,-3.67
2023-01-29T06:43:24.843Z,-3.67
2023-01-29T06:43:56.923Z,-3.67
2023-01-29T06:44:28.972Z,-3.67
2023-01-29T06:45:01.562Z,-3.67
2023-01-29T06:45:32.824Z,-3.67
2023-01-29T06:46:04.808Z,-3.67
2023-01-29T06:46:36.823Z,-3.67
2023-01-29T06:47:08.684Z,-3.67
2023-01-29T06:47:40.743Z,-3.67
2023-01-29T06:48:12.799Z,-3.67
2023-01-29T06:48:44.761Z,-3.67
2023-01-29T06:49:16.555Z,-3.67
2023-01-29T06:49:48.562Z,-3.67
2023-01-29T06:50:20.736Z,-3.67
2023-01-29T06:50:52.654Z,-3.67
2023-01-29T06:51:24.507Z,-3.67
2023-01-29T06:51:56.578Z,-3.67
2023-01-29T06:52:28.522Z,-3.67
2023-01-29T06:53:00.502Z,-3.67